Time;durP1;ratioP1;P1;durP2;ratioP2;P2;SDS_P1;SDS_P2;PMS_P1;PMS_P2;Temp;Humidity;BMP_temperature;BMP_pressure;BME280_temperature;BME280_humidity;BME280_pressure;Samples;Min_cycle;Max_cycle;Signal;HPM_P1;HPM_P2
2022/07/13 00:00:21;;;;;;;0.70;0.70;;;;;;;13.33;100.00;97432.94;5089577;28;20511;-59
2022/07/13 00:02:47;;;;;;;0.88;0.80;;;;;;;13.37;100.00;97436.38;5089715;28;20086;-59
2022/07/13 00:05:13;;;;;;;0.80;0.80;;;;;;;13.37;100.00;97427.34;5089539;28;20190;-59
2022/07/13 00:07:40;;;;;;;0.68;0.68;;;;;;;13.25;100.00;97439.00;5089963;28;20465;-60
2022/07/13 00:10:07;;;;;;;0.70;0.70;;;;;;;13.29;100.00;97437.72;5089502;28;20082;-59
2022/07/13 00:12:33;;;;;;;0.82;0.70;;;;;;;13.37;100.00;97439.13;5093057;28;20553;-59
2022/07/13 00:14:59;;;;;;;0.70;0.70;;;;;;;13.34;100.00;97431.72;5093300;28;20353;-59
2022/07/13 00:17:26;;;;;;;0.50;0.50;;;;;;;13.16;100.00;97431.28;5093298;28;20051;-59
2022/07/13 00:19:52;;;;;;;0.82;0.60;;;;;;;13.20;100.00;97432.00;5093216;28;20185;-59
2022/07/13 00:22:19;;;;;;;5.57;0.90;;;;;;;13.36;100.00;97425.78;5092905;28;20143;-59
2022/07/13 00:24:45;;;;;;;0.60;0.60;;;;;;;13.18;100.00;97435.16;5093019;28;20048;-59
2022/07/13 00:27:11;;;;;;;0.60;0.60;;;;;;;13.27;100.00;97436.63;5092762;28;20142;-59
2022/07/13 00:29:37;;;;;;;0.80;0.60;;;;;;;13.08;100.00;97433.41;5092793;28;20135;-59
2022/07/13 00:32:04;;;;;;;0.82;0.70;;;;;;;13.33;100.00;97424.69;5092627;28;20465;-59
2022/07/13 00:34:32;;;;;;;0.70;0.70;;;;;;;13.36;100.00;97429.34;5092863;28;20575;-59
2022/07/13 00:36:59;;;;;;;0.80;0.80;;;;;;;13.25;100.00;97430.75;5092585;28;20048;-59
2022/07/13 00:39:25;;;;;;;0.73;0.55;;;;;;;13.07;100.00;97428.34;5092735;28;20048;-59
2022/07/13 00:41:51;;;;;;;0.60;0.60;;;;;;;13.20;100.00;97429.25;5092552;28;20136;-59
2022/07/13 00:44:17;;;;;;;2.60;0.70;;;;;;;13.18;100.00;97417.88;5092719;28;20160;-59
2022/07/13 00:46:52;;;;;;;0.50;0.50;;;;;;;13.24;100.00;97429.19;5092524;28;20138;-59
2022/07/13 00:49:18;;;;;;;6.43;0.73;;;;;;;12.99;100.00;97432.41;5092687;28;20044;-60
2022/07/13 00:51:45;;;;;;;1.25;0.50;;;;;;;13.13;100.00;97424.66;5092892;28;20155;-59
2022/07/13 00:54:12;;;;;;;0.70;0.47;;;;;;;13.06;100.00;97413.81;5092722;28;20685;-60
2022/07/13 00:56:38;;;;;;;0.47;0.47;;;;;;;13.28;100.00;97410.63;5092548;28;20114;-59
2022/07/13 00:59:06;;;;;;;0.75;0.63;;;;;;;13.31;100.00;97418.03;5092488;28;20665;-59
2022/07/13 01:01:32;;;;;;;0.60;0.50;;;;;;;13.49;100.00;97423.16;5092668;28;20048;-59
2022/07/13 01:03:59;;;;;;;1.85;0.45;;;;;;;13.36;100.00;97436.78;5092426;28;20566;-60
2022/07/13 01:06:25;;;;;;;0.50;0.50;;;;;;;13.13;100.00;97434.91;5092297;28;20067;-59
2022/07/13 01:08:52;;;;;;;0.50;0.50;;;;;;;13.11;100.00;97429.03;5092247;28;20427;-59
2022/07/13 01:11:19;;;;;;;0.65;0.50;;;;;;;13.23;100.00;97422.91;5092594;28;20044;-59
2022/07/13 01:13:46;;;;;;;0.40;0.40;;;;;;;13.15;100.00;97424.22;5092379;28;20518;-59
2022/07/13 01:16:12;;;;;;;0.50;0.50;;;;;;;12.93;100.00;97418.41;5092083;28;20531;-59
2022/07/13 01:18:39;;;;;;;2.25;0.50;;;;;;;12.92;100.00;97408.56;5092394;28;20052;-60
2022/07/13 01:21:06;;;;;;;0.47;0.47;;;;;;;13.06;100.00;97405.56;5091963;28;20522;-59
2022/07/13 01:23:34;;;;;;;0.50;0.50;;;;;;;13.03;100.00;97408.34;5091138;28;20047;-59
2022/07/13 01:26:01;;;;;;;0.52;0.50;;;;;;;13.14;100.00;97408.94;5091860;28;20494;-59
2022/07/13 01:28:27;;;;;;;0.82;0.40;;;;;;;13.33;100.00;97415.66;5092203;28;20059;-59
2022/07/13 01:30:53;;;;;;;0.45;0.45;;;;;;;13.01;100.00;97411.53;5091720;28;20052;-59
2022/07/13 01:33:20;;;;;;;0.40;0.40;;;;;;;13.04;100.00;97410.69;5091818;28;20098;-59
2022/07/13 01:35:46;;;;;;;0.43;0.43;;;;;;;13.08;100.00;97408.66;5091686;28;20139;-59
2022/07/13 01:38:13;;;;;;;0.50;0.50;;;;;;;13.06;100.00;97413.81;5091936;28;20174;-59
2022/07/13 01:40:41;;;;;;;0.50;0.50;;;;;;;13.01;100.00;97417.03;5091925;28;20048;-59
2022/07/13 01:43:08;;;;;;;0.82;0.50;;;;;;;13.03;100.00;97411.09;5091612;28;20059;-59
2022/07/13 01:45:34;;;;;;;0.50;0.50;;;;;;;12.99;100.00;97418.66;5091844;28;20112;-60
2022/07/13 01:48:00;;;;;;;1.55;0.40;;;;;;;13.07;100.00;97414.59;5091453;28;20055;-59
2022/07/13 01:50:27;;;;;;;0.40;0.40;;;;;;;13.08;100.00;97411.41;5091977;28;20063;-60
2022/07/13 01:52:54;;;;;;;0.40;0.40;;;;;;;12.94;100.00;97409.72;5091635;28;20101;-60
2022/07/13 01:55:20;;;;;;;0.40;0.40;;;;;;;12.99;100.00;97411.19;5091786;28;20079;-60
2022/07/13 01:57:47;;;;;;;0.50;0.50;;;;;;;12.95;100.00;97416.75;5091512;28;20121;-60
2022/07/13 02:00:16;;;;;;;0.40;0.40;;;;;;;13.11;100.00;97418.81;5091558;28;20423;-59
2022/07/13 02:02:43;;;;;;;0.40;0.40;;;;;;;13.11;100.00;97415.28;5091224;28;20135;-60
2022/07/13 02:05:11;;;;;;;0.40;0.40;;;;;;;12.85;100.00;97408.72;5091443;28;20052;-59
2022/07/13 02:07:38;;;;;;;0.40;0.40;;;;;;;12.84;100.00;97407.94;5091284;28;20510;-59
2022/07/13 02:10:05;;;;;;;0.50;0.50;;;;;;;12.89;100.00;97410.19;5091339;28;20052;-60
2022/07/13 02:12:31;;;;;;;0.50;0.50;;;;;;;12.86;100.00;97411.06;5091430;28;20095;-59
2022/07/13 02:14:58;;;;;;;0.40;0.40;;;;;;;13.09;100.00;97410.19;5091292;28;20052;-60
2022/07/13 02:17:25;;;;;;;0.50;0.50;;;;;;;12.90;100.00;97409.00;5091652;28;20520;-59
2022/07/13 02:19:52;;;;;;;1.05;0.95;;;;;;;13.03;100.00;97416.59;5091068;28;20503;-60
2022/07/13 02:22:18;;;;;;;0.75;0.60;;;;;;;13.07;100.00;97420.09;5091325;28;20059;-60
2022/07/13 02:24:45;;;;;;;0.60;0.60;;;;;;;12.93;100.00;97416.41;5091288;28;20132;-60
2022/07/13 02:27:11;;;;;;;0.68;0.68;;;;;;;12.97;100.00;97418.31;5091125;28;20131;-60
2022/07/13 02:29:38;;;;;;;0.50;0.50;;;;;;;13.10;100.00;97414.50;5090927;28;20495;-59
2022/07/13 02:32:06;;;;;;;0.50;0.43;;;;;;;13.10;100.00;97420.00;5090922;28;20138;-59
2022/07/13 02:34:32;;;;;;;1.00;0.50;;;;;;;13.04;100.00;97424.44;5090770;28;20094;-60
2022/07/13 02:36:59;;;;;;;0.50;0.50;;;;;;;12.77;100.00;97423.81;5091025;28;20062;-60
2022/07/13 02:39:25;;;;;;;0.40;0.40;;;;;;;13.09;100.00;97425.91;5091069;28;20052;-59
2022/07/13 02:41:51;;;;;;;1.75;0.40;;;;;;;12.94;100.00;97431.72;5090857;28;20048;-59
2022/07/13 02:44:17;;;;;;;0.50;0.50;;;;;;;13.08;100.00;97438.91;5090969;28;20051;-60
2022/07/13 02:46:44;;;;;;;0.50;0.50;;;;;;;12.83;100.00;97438.59;5090511;28;20044;-60
2022/07/13 02:49:11;;;;;;;1.75;0.50;;;;;;;12.74;100.00;97433.69;5090825;28;20044;-59
2022/07/13 02:51:37;;;;;;;2.83;0.45;;;;;;;12.81;100.00;97439.03;5090531;28;20048;-59
2022/07/13 02:54:03;;;;;;;0.30;0.30;;;;;;;13.01;100.00;97432.78;5090633;28;20503;-59
2022/07/13 02:56:30;;;;;;;0.40;0.40;;;;;;;13.04;100.00;97443.72;5090271;28;20189;-60
2022/07/13 02:58:56;;;;;;;0.52;0.52;;;;;;;12.82;100.00;97437.81;5090313;28;20064;-59
2022/07/13 03:01:22;;;;;;;0.40;0.40;;;;;;;12.82;100.00;97437.06;5090682;28;20059;-59
2022/07/13 03:03:48;;;;;;;0.57;0.57;;;;;;;12.97;100.00;97445.84;5090392;28;20142;-60
2022/07/13 03:06:15;;;;;;;0.43;0.43;;;;;;;13.04;100.00;97445.69;5090695;28;20415;-60
2022/07/13 03:08:41;;;;;;;0.43;0.43;;;;;;;13.07;100.00;97444.84;5090283;28;20097;-59
2022/07/13 03:11:08;;;;;;;0.50;0.50;;;;;;;12.83;100.00;97441.34;5090527;28;20047;-59
2022/07/13 03:13:35;;;;;;;0.50;0.50;;;;;;;12.91;100.00;97440.81;5090023;28;20048;-60
2022/07/13 03:16:01;;;;;;;0.50;0.50;;;;;;;12.85;100.00;97436.22;5090486;28;20131;-59
2022/07/13 03:18:27;;;;;;;0.98;0.50;;;;;;;13.00;100.00;97445.75;5090204;28;20498;-60
2022/07/13 03:20:54;;;;;;;0.52;0.52;;;;;;;12.87;100.00;97445.59;5090319;28;20521;-59
2022/07/13 03:23:21;;;;;;;0.57;0.57;;;;;;;12.97;100.00;97440.31;5089971;28;20094;-60
2022/07/13 03:25:47;;;;;;;0.70;0.70;;;;;;;12.94;100.00;97439.19;5090073;28;20054;-59
2022/07/13 03:28:13;;;;;;;1.50;0.50;;;;;;;12.79;100.00;97438.66;5089899;28;20091;-59
2022/07/13 03:30:40;;;;;;;0.50;0.50;;;;;;;12.69;100.00;97434.94;5090333;28;20078;-59
2022/07/13 03:33:06;;;;;;;2.10;0.60;;;;;;;12.94;100.00;97426.22;5090556;28;20052;-59
2022/07/13 03:35:32;;;;;;;0.80;0.60;;;;;;;12.86;100.00;97438.56;5090173;28;20047;-59
2022/07/13 03:37:58;;;;;;;0.50;0.50;;;;;;;12.95;100.00;97440.72;5090079;28;20064;-58
2022/07/13 03:40:25;;;;;;;0.45;0.45;;;;;;;12.77;100.00;97438.34;5089823;28;20147;-59
2022/07/13 03:42:51;;;;;;;0.60;0.50;;;;;;;12.86;100.00;97441.31;5090098;28;20044;-59
2022/07/13 03:45:18;;;;;;;0.50;0.50;;;;;;;13.01;100.00;97461.06;5089257;28;20574;-59
2022/07/13 03:47:44;;;;;;;0.70;0.70;;;;;;;13.07;100.00;97442.88;5089727;28;20051;-59
2022/07/13 03:50:10;;;;;;;4.78;1.02;;;;;;;13.13;100.00;97451.41;5089712;28;20141;-59
2022/07/13 03:52:36;;;;;;;0.50;0.50;;;;;;;13.02;100.00;97457.09;5089842;28;20051;-59
2022/07/13 03:55:03;;;;;;;1.02;1.00;;;;;;;12.94;100.00;97461.19;5089535;28;20051;-59
2022/07/13 03:57:30;;;;;;;0.60;0.60;;;;;;;13.02;100.00;97462.59;5089554;28;20098;-60
2022/07/13 03:59:56;;;;;;;1.15;0.68;;;;;;;13.13;100.00;97474.19;5089908;28;20108;-59
2022/07/13 04:02:22;;;;;;;0.50;0.50;;;;;;;12.94;100.00;97467.47;5089560;28;20051;-59
2022/07/13 04:04:49;;;;;;;0.60;0.60;;;;;;;12.99;100.00;97473.69;5089849;28;20134;-59
2022/07/13 04:07:15;;;;;;;0.80;0.80;;;;;;;13.10;100.00;97480.53;5089390;28;20139;-59
2022/07/13 04:09:41;;;;;;;1.75;0.90;;;;;;;13.03;100.00;97493.63;5089761;28;20090;-59
2022/07/13 04:12:07;;;;;;;0.50;0.50;;;;;;;12.92;100.00;97480.09;5089420;28;20048;-59
2022/07/13 04:14:34;;;;;;;0.50;0.50;;;;;;;13.00;100.00;97478.78;5089621;28;20048;-59
2022/07/13 04:17:01;;;;;;;1.73;0.57;;;;;;;12.90;100.00;97474.25;5089579;28;20059;-59
2022/07/13 04:19:27;;;;;;;1.05;0.68;;;;;;;13.12;100.00;97475.38;5089490;28;20134;-59
2022/07/13 04:21:53;;;;;;;0.70;0.70;;;;;;;13.22;100.00;97486.59;5089488;28;20213;-58
2022/07/13 04:24:19;;;;;;;0.88;0.75;;;;;;;13.09;100.00;97484.47;5089161;28;20052;-59
2022/07/13 04:26:46;;;;;;;0.60;0.60;;;;;;;13.06;100.00;97492.78;5089411;28;20144;-58
2022/07/13 04:29:12;;;;;;;0.70;0.70;;;;;;;13.28;100.00;97491.22;5089178;28;20547;-59
2022/07/13 04:31:39;;;;;;;0.80;0.80;;;;;;;13.02;100.00;97494.84;5089299;28;20606;-59
2022/07/13 04:34:05;;;;;;;1.95;0.60;;;;;;;12.94;100.00;97486.72;5089134;28;20083;-59
2022/07/13 04:36:31;;;;;;;0.50;0.50;;;;;;;13.40;100.00;97498.06;5089391;28;20139;-59
2022/07/13 04:38:58;;;;;;;0.93;0.70;;;;;;;13.29;100.00;97508.50;5089033;28;20090;-59
2022/07/13 04:41:24;;;;;;;0.50;0.50;;;;;;;13.32;100.00;97513.16;5089099;28;20048;-60
2022/07/13 04:43:52;;;;;;;2.55;0.80;;;;;;;13.47;100.00;97505.41;5088944;28;20135;-60
2022/07/13 04:46:18;;;;;;;0.57;0.57;;;;;;;13.51;100.00;97519.88;5089200;28;20423;-59
2022/07/13 04:48:45;;;;;;;1.55;0.68;;;;;;;13.63;100.00;97522.00;5088883;28;20507;-60
2022/07/13 04:51:11;;;;;;;3.13;0.60;;;;;;;13.58;100.00;97530.72;5089016;28;20048;-60
2022/07/13 04:53:38;;;;;;;1.95;0.80;;;;;;;13.61;100.00;97535.41;5088700;28;20079;-60
2022/07/13 04:56:05;;;;;;;0.57;0.57;;;;;;;13.79;100.00;97554.28;5089186;28;20139;-60
2022/07/13 04:58:32;;;;;;;0.60;0.60;;;;;;;13.64;100.00;97565.63;5090825;28;20487;-60
2022/07/13 05:01:00;;;;;;;0.70;0.70;;;;;;;13.49;100.00;97560.81;5092153;28;20048;-60
2022/07/13 05:03:27;;;;;;;1.42;0.60;;;;;;;13.65;100.00;97577.41;5092410;28;20048;-60
2022/07/13 05:05:54;;;;;;;0.55;0.55;;;;;;;13.49;100.00;97572.59;5091886;28;20135;-60
2022/07/13 05:08:20;;;;;;;2.67;0.65;;;;;;;13.47;100.00;97574.22;5092227;28;20052;-60
2022/07/13 05:10:46;;;;;;;1.05;0.60;;;;;;;13.21;100.00;97593.16;5092089;28;20067;-60
2022/07/13 05:13:12;;;;;;;1.85;0.60;;;;;;;13.49;100.00;97577.31;5092451;28;20055;-60
2022/07/13 05:15:39;;;;;;;2.05;0.60;;;;;;;13.44;100.00;97575.84;5092211;28;20052;-60
2022/07/13 05:18:05;;;;;;;0.85;0.70;;;;;;;13.46;100.00;97578.16;5092624;28;20162;-60
2022/07/13 05:20:31;;;;;;;1.90;0.45;;;;;;;13.39;100.00;97590.09;5091903;28;20625;-60
2022/07/13 05:22:58;;;;;;;0.50;0.50;;;;;;;13.26;100.00;97589.16;5092150;28;20048;-60
2022/07/13 05:25:25;;;;;;;0.60;0.60;;;;;;;13.13;100.00;97583.47;5092137;28;20419;-60
2022/07/13 05:27:51;;;;;;;0.50;0.50;;;;;;;13.00;100.00;97575.03;5091578;28;20074;-60
2022/07/13 05:30:17;;;;;;;0.50;0.50;;;;;;;13.64;100.00;97576.63;5091911;28;20054;-63
2022/07/13 05:32:43;;;;;;;0.73;0.60;;;;;;;13.84;100.00;97598.66;5091342;28;20097;-65
2022/07/13 05:35:10;;;;;;;0.70;0.70;;;;;;;13.80;100.00;97617.22;5091984;28;20048;-61
2022/07/13 05:37:36;;;;;;;3.85;0.50;;;;;;;13.78;100.00;97629.88;5092165;28;20146;-61
2022/07/13 05:40:04;;;;;;;0.75;0.50;;;;;;;13.83;100.00;97632.16;5091963;28;20056;-58
2022/07/13 05:42:30;;;;;;;0.57;0.57;;;;;;;13.89;100.00;97645.00;5091677;28;20499;-58
2022/07/13 05:44:57;;;;;;;1.83;0.57;;;;;;;13.73;100.00;97652.38;5091759;28;20415;-58
2022/07/13 05:47:23;;;;;;;0.40;0.40;;;;;;;13.31;100.00;97671.25;5091712;28;20052;-58
2022/07/13 05:49:50;;;;;;;0.40;0.40;;;;;;;13.56;100.00;97660.56;5091635;28;20490;-59
2022/07/13 05:52:16;;;;;;;1.00;0.50;;;;;;;13.86;100.00;97653.31;5091913;28;20113;-60
2022/07/13 05:54:42;;;;;;;0.50;0.50;;;;;;;13.89;100.00;97660.72;5091840;28;20066;-58
2022/07/13 05:57:09;;;;;;;1.27;0.68;;;;;;;13.86;100.00;97678.09;5091591;28;20055;-60
2022/07/13 05:59:35;;;;;;;0.50;0.50;;;;;;;13.74;100.00;97684.25;5091890;28;20059;-61
2022/07/13 06:02:01;;;;;;;0.65;0.45;;;;;;;13.75;100.00;97692.06;5091777;28;20054;-62
2022/07/13 06:04:28;;;;;;;0.52;0.52;;;;;;;13.69;100.00;97702.03;5091537;28;20143;-62
2022/07/13 06:06:54;;;;;;;0.70;0.55;;;;;;;13.55;100.00;97713.28;5091801;28;20058;-63
2022/07/13 06:09:20;;;;;;;0.60;0.60;;;;;;;13.85;100.00;97693.06;5090812;28;20143;-62
2022/07/13 06:11:46;;;;;;;0.55;0.55;;;;;;;13.73;100.00;97704.72;5091378;28;20097;-62
2022/07/13 06:14:14;;;;;;;3.15;0.70;;;;;;;13.82;100.00;97707.69;5091587;28;20138;-62
2022/07/13 06:16:40;;;;;;;0.68;0.40;;;;;;;13.85;100.00;97712.38;5091151;28;20143;-61
2022/07/13 06:19:06;;;;;;;4.05;0.80;;;;;;;14.13;100.00;97735.84;5090647;28;20242;-59
2022/07/13 06:21:32;;;;;;;1.80;0.70;;;;;;;14.07;100.00;97741.06;5091040;28;20051;-58
2022/07/13 06:23:59;;;;;;;0.70;0.70;;;;;;;14.03;100.00;97748.63;5090886;28;20081;-60
2022/07/13 06:26:25;;;;;;;0.77;0.70;;;;;;;13.81;100.00;97744.72;5090689;28;20143;-56
2022/07/13 06:28:51;;;;;;;1.05;0.60;;;;;;;13.83;100.00;97748.59;5091093;28;20517;-55
2022/07/13 06:31:18;;;;;;;0.90;0.70;;;;;;;13.92;100.00;97750.03;5090717;28;20048;-56
2022/07/13 06:33:44;;;;;;;0.70;0.70;;;;;;;13.91;100.00;97751.22;5090813;28;20182;-56
2022/07/13 06:36:11;;;;;;;1.98;0.70;;;;;;;13.83;100.00;97748.59;5089864;28;20553;-58
2022/07/13 06:38:37;;;;;;;0.70;0.60;;;;;;;14.10;100.00;97743.00;5090126;28;20089;-57
2022/07/13 06:41:03;;;;;;;0.88;0.68;;;;;;;13.87;100.00;97754.06;5090820;28;20135;-58
2022/07/13 06:43:30;;;;;;;2.60;0.75;;;;;;;13.81;100.00;97761.25;5090910;28;20141;-56
2022/07/13 06:45:56;;;;;;;0.40;0.40;;;;;;;13.99;100.00;97755.41;5090829;28;20867;-60
2022/07/13 06:48:23;;;;;;;0.60;0.60;;;;;;;14.11;100.00;97761.06;5090771;28;20094;-56
2022/07/13 06:50:49;;;;;;;0.73;0.70;;;;;;;13.98;100.00;97781.41;5090522;28;20518;-58
2022/07/13 06:53:15;;;;;;;5.00;0.63;;;;;;;14.02;100.00;97773.84;5090483;28;20055;-59
2022/07/13 06:55:42;;;;;;;1.45;0.60;;;;;;;14.55;100.00;97785.84;5090637;28;20139;-60
2022/07/13 06:58:08;;;;;;;2.92;0.63;;;;;;;14.09;100.00;97809.53;5090507;28;20094;-60
2022/07/13 07:00:34;;;;;;;0.82;0.65;;;;;;;14.26;100.00;97822.22;5090770;28;20044;-58
2022/07/13 07:03:01;;;;;;;0.60;0.60;;;;;;;13.86;100.00;97802.06;5090486;28;20070;-58
2022/07/13 07:05:28;;;;;;;0.57;0.57;;;;;;;14.06;100.00;97802.91;5090824;28;20079;-58
2022/07/13 07:07:54;;;;;;;0.80;0.70;;;;;;;14.08;100.00;97806.00;5090177;28;20135;-59
2022/07/13 07:10:21;;;;;;;1.90;0.88;;;;;;;14.16;100.00;97812.19;5090318;28;20532;-59
2022/07/13 07:12:48;;;;;;;2.17;1.10;;;;;;;14.40;100.00;97815.66;5090220;28;20436;-59
2022/07/13 07:15:14;;;;;;;1.35;0.70;;;;;;;14.28;100.00;97830.06;5090137;28;20051;-58
2022/07/13 07:17:44;;;;;;;2.25;0.82;;;;;;;14.57;100.00;97828.34;5090169;28;20083;-58
2022/07/13 07:20:11;;;;;;;1.00;0.68;;;;;;;14.45;100.00;97847.47;5089560;28;20055;-60
2022/07/13 07:22:39;;;;;;;4.38;0.82;;;;;;;14.39;100.00;97871.22;5089850;28;20154;-58
2022/07/13 07:25:07;;;;;;;2.28;0.70;;;;;;;14.54;100.00;97878.84;5090098;28;20117;-58
2022/07/13 07:27:33;;;;;;;2.28;0.70;;;;;;;14.40;100.00;97894.84;5090245;28;20093;-57
2022/07/13 07:29:59;;;;;;;2.92;0.70;;;;;;;14.41;100.00;97890.88;5090083;28;20131;-59
2022/07/13 07:32:26;;;;;;;0.88;0.80;;;;;;;14.28;100.00;97888.72;5090088;28;20058;-58
2022/07/13 07:34:52;;;;;;;1.25;0.68;;;;;;;14.31;100.00;97876.88;5089804;28;20097;-57
2022/07/13 07:37:20;;;;;;;3.28;0.57;;;;;;;14.36;100.00;97890.19;5089995;28;20067;-58
2022/07/13 07:39:47;;;;;;;0.57;0.57;;;;;;;14.36;100.00;97916.94;5089893;28;20101;-58
2022/07/13 07:42:16;;;;;;;0.82;0.65;;;;;;;14.35;100.00;97915.41;5089729;28;20052;-58
2022/07/13 07:44:42;;;;;;;0.60;0.60;;;;;;;14.34;100.00;97902.81;5090246;28;20049;-57
2022/07/13 07:47:09;;;;;;;1.10;0.57;;;;;;;14.34;100.00;97919.34;5089927;28;20495;-58
2022/07/13 07:49:35;;;;;;;0.70;0.60;;;;;;;14.64;100.00;97937.00;5089827;28;20073;-58
2022/07/13 07:52:01;;;;;;;0.85;0.70;;;;;;;14.57;100.00;97941.44;5089905;28;20048;-57
2022/07/13 07:54:30;;;;;;;1.52;0.70;;;;;;;14.82;100.00;97948.47;5089946;28;20142;-57
2022/07/13 07:56:57;;;;;;;0.70;0.60;;;;;;;14.63;100.00;97972.06;5089635;28;20055;-58
2022/07/13 07:59:24;;;;;;;1.52;0.95;;;;;;;14.64;100.00;97984.66;5089718;28;20052;-58
2022/07/13 08:01:50;;;;;;;0.70;0.70;;;;;;;14.68;100.00;97990.09;5089577;28;20052;-58
2022/07/13 08:04:16;;;;;;;0.75;0.65;;;;;;;14.59;100.00;97983.16;5089399;28;20048;-57
2022/07/13 08:06:43;;;;;;;3.63;0.70;;;;;;;14.53;100.00;97992.34;5089644;28;20070;-58
2022/07/13 08:09:09;;;;;;;0.55;0.55;;;;;;;14.54;100.00;98013.97;5089292;28;20127;-58
2022/07/13 08:11:35;;;;;;;0.80;0.80;;;;;;;14.73;100.00;98011.72;5089317;28;20210;-58
2022/07/13 08:14:02;;;;;;;1.55;0.70;;;;;;;14.81;100.00;98016.66;5089481;28;20048;-58
2022/07/13 08:16:29;;;;;;;1.15;0.80;;;;;;;14.46;100.00;98020.78;5089368;28;20517;-58
2022/07/13 08:18:55;;;;;;;1.00;0.70;;;;;;;14.48;100.00;98012.84;5089250;28;20070;-57
2022/07/13 08:21:22;;;;;;;2.30;0.80;;;;;;;14.45;100.00;98019.22;5089503;28;20139;-59
2022/07/13 08:23:54;;;;;;;1.48;0.70;;;;;;;14.76;100.00;98013.59;5089065;28;20100;-59
2022/07/13 08:26:22;;;;;;;1.45;1.00;;;;;;;14.60;100.00;98041.88;5089465;28;20056;-59
2022/07/13 08:28:49;;;;;;;0.85;0.85;;;;;;;14.49;100.00;98044.75;5089019;28;20189;-58
2022/07/13 08:31:16;;;;;;;0.73;0.70;;;;;;;14.85;100.00;98030.41;5089356;28;20281;-59
2022/07/13 08:39:12;;;;;;;;;;;;;;;14.71;100.00;98072.03;5093289;28;20051;-59
2022/07/13 08:41:38;;;;;;;0.85;0.70;;;;;;;14.57;100.00;98073.81;5092697;28;19923;-58
2022/07/13 08:44:05;;;;;;;1.30;0.80;;;;;;;14.55;100.00;98075.41;5093024;28;20059;-59
2022/07/13 08:46:32;;;;;;;0.80;0.80;;;;;;;14.90;100.00;98068.56;5092534;28;20085;-59
2022/07/13 08:49:00;;;;;;;0.60;0.60;;;;;;;14.55;100.00;98081.72;5092498;28;20087;-59
2022/07/13 08:51:26;;;;;;;0.68;0.68;;;;;;;14.78;100.00;98082.94;5092400;28;20597;-59
2022/07/13 08:53:54;;;;;;;1.65;0.90;;;;;;;14.61;100.00;98090.31;5092629;28;20059;-59
2022/07/13 08:56:20;;;;;;;0.70;0.70;;;;;;;14.84;100.00;98086.78;5092776;28;20425;-60
2022/07/13 08:58:47;;;;;;;0.82;0.82;;;;;;;14.84;100.00;98078.50;5092403;28;20048;-58
2022/07/13 09:01:14;;;;;;;0.80;0.80;;;;;;;14.64;100.00;98094.22;5092488;28;20044;-58
2022/07/13 09:03:42;;;;;;;1.33;0.80;;;;;;;14.78;100.00;98085.69;5092237;28;20134;-58
2022/07/13 09:06:08;;;;;;;0.93;0.65;;;;;;;14.65;100.00;98087.50;5092516;28;20572;-59
2022/07/13 09:08:41;;;;;;;1.17;1.08;;;;;;;14.68;100.00;98083.91;5092212;28;20139;-58
2022/07/13 09:11:08;;;;;;;0.75;0.75;;;;;;;14.68;100.00;98075.63;5092293;28;20383;-59
2022/07/13 09:13:36;;;;;;;1.08;0.70;;;;;;;14.52;100.00;98090.03;5091689;28;20129;-57
2022/07/13 09:16:17;;;;;;;2.03;0.93;;;;;;;14.68;100.00;98083.91;5091962;28;20079;-57
2022/07/13 09:18:46;;;;;;;5.85;1.27;;;;;;;15.16;100.00;98094.53;5092294;28;20531;-57
2022/07/13 09:21:12;;;;;;;3.63;1.35;;;;;;;14.85;100.00;98118.69;5091826;28;20051;-57
2022/07/13 09:23:39;;;;;;;0.82;0.82;;;;;;;14.82;100.00;98125.81;5091759;28;20143;-57
2022/07/13 09:26:06;;;;;;;1.20;1.10;;;;;;;14.68;100.00;98117.00;5091791;28;20458;-58
2022/07/13 09:28:42;;;;;;;1.02;1.02;;;;;;;14.89;100.00;98102.06;5091801;28;20052;-59
2022/07/13 09:31:09;;;;;;;1.20;1.00;;;;;;;14.88;100.00;98100.53;5092205;28;20048;-57
2022/07/13 09:33:36;;;;;;;4.47;0.85;;;;;;;15.06;100.00;98109.28;5092204;28;20154;-57
2022/07/13 09:36:10;;;;;;;1.10;1.00;;;;;;;15.10;100.00;98123.03;5091987;28;20170;-56
2022/07/13 09:38:38;;;;;;;1.48;1.05;;;;;;;15.10;100.00;98139.59;5091876;28;20054;-54
2022/07/13 09:41:20;;;;;;;2.03;1.33;;;;;;;15.07;100.00;98155.00;5091534;28;20135;-55
2022/07/13 09:46:53;;;;;;;1.80;1.10;;;;;;;14.88;100.00;98123.38;5091710;28;20102;-55
2022/07/13 09:49:28;;;;;;;1.25;1.10;;;;;;;14.91;100.00;98124.53;5091168;28;20441;-59
2022/07/13 09:51:57;;;;;;;1.40;0.90;;;;;;;14.85;100.00;98110.41;5091552;28;20404;-57
2022/07/13 09:54:27;;;;;;;0.75;0.75;;;;;;;15.02;100.00;98098.28;5091273;28;20048;-57
2022/07/13 09:56:57;;;;;;;2.05;1.02;;;;;;;15.28;100.00;98110.47;5090920;28;20059;-60
2022/07/13 09:59:25;;;;;;;0.90;0.90;;;;;;;15.03;100.00;98118.41;5091328;28;20048;-56
2022/07/13 10:01:52;;;;;;;1.95;1.00;;;;;;;14.99;100.00;98112.16;5091194;28;20138;-55
2022/07/13 10:04:19;;;;;;;1.17;1.08;;;;;;;15.07;100.00;98127.41;5091343;28;20044;-55
2022/07/13 10:06:46;;;;;;;0.93;0.93;;;;;;;14.66;100.00;98136.75;5091191;28;20106;-55
2022/07/13 10:09:13;;;;;;;1.65;1.10;;;;;;;14.86;100.00;98130.50;5091299;28;20083;-55
2022/07/13 10:11:40;;;;;;;3.00;0.90;;;;;;;14.75;100.00;98114.13;5090819;28;20461;-54
2022/07/13 10:14:06;;;;;;;2.38;1.23;;;;;;;14.75;100.00;98112.13;5091134;28;20052;-55
2022/07/13 10:16:33;;;;;;;1.23;0.90;;;;;;;15.01;100.00;98110.53;5090998;28;20050;-56
2022/07/13 10:19:06;;;;;;;0.93;0.93;;;;;;;15.06;100.00;98112.03;5090949;28;20412;-55
2022/07/13 10:21:45;;;;;;;1.05;1.00;;;;;;;14.80;100.00;98116.41;5091322;28;20688;-54
2022/07/13 10:24:16;;;;;;;2.80;0.80;;;;;;;14.90;100.00;98106.41;5090973;28;20139;-55
2022/07/13 10:26:43;;;;;;;1.05;1.00;;;;;;;14.96;100.00;98124.03;5090694;28;20080;-55
2022/07/13 10:29:11;;;;;;;0.80;0.80;;;;;;;15.00;100.00;98141.34;5090873;28;20048;-56
2022/07/13 10:31:39;;;;;;;1.85;1.00;;;;;;;15.14;100.00;98165.94;5090852;28;20126;-55
2022/07/13 10:34:07;;;;;;;1.15;1.05;;;;;;;14.77;100.00;98170.44;5090910;28;20052;-54
2022/07/13 10:36:56;;;;;;;1.27;0.90;;;;;;;14.80;100.00;98172.38;5090854;28;20048;-54
2022/07/13 10:39:24;;;;;;;0.98;0.95;;;;;;;14.67;100.00;98156.81;5090798;28;20054;-54
2022/07/13 10:42:01;;;;;;;1.13;1.13;;;;;;;14.96;100.00;98143.34;5091000;28;20102;-56
2022/07/13 10:44:32;;;;;;;1.02;1.02;;;;;;;14.88;100.00;98125.34;5090684;28;20131;-56
2022/07/13 10:46:59;;;;;;;1.33;1.23;;;;;;;14.94;100.00;98141.03;5090534;28;20162;-55
2022/07/13 10:49:38;;;;;;;1.90;1.05;;;;;;;14.75;100.00;98139.72;5090496;28;20152;-53
2022/07/13 10:52:38;;;;;;;1.20;1.10;;;;;;;14.75;100.00;98130.69;5090722;28;20052;-55
2022/07/13 10:55:32;;;;;;;1.80;1.70;;;;;;;14.79;100.00;98128.63;5088717;28;20062;-52
2022/07/13 10:57:58;;;;;;;1.40;1.30;;;;;;;15.11;100.00;98125.38;5088954;28;20102;-53
2022/07/13 11:00:41;;;;;;;1.63;1.38;;;;;;;15.13;100.00;98141.50;5090732;28;20076;-56
2022/07/13 11:03:26;;;;;;;1.30;1.30;;;;;;;14.98;100.00;98150.00;5090399;28;20498;-51
2022/07/13 11:06:05;;;;;;;;;;;;;;;14.96;100.00;98132.31;5090702;28;20109;-55
2022/07/13 11:08:31;;;;;;;2.22;1.80;;;;;;;14.96;100.00;98122.06;5090395;28;19931;-55
2022/07/13 11:11:10;;;;;;;3.13;1.20;;;;;;;14.84;100.00;98122.66;5090285;28;20499;-54
2022/07/13 11:13:36;;;;;;;0.93;0.93;;;;;;;14.76;100.00;98122.00;5090263;28;20480;-56
2022/07/13 11:16:03;;;;;;;3.55;1.55;;;;;;;14.80;100.00;98102.63;5090098;28;20503;-55
2022/07/13 11:18:31;;;;;;;0.95;0.95;;;;;;;14.80;100.00;98097.88;5089976;28;20104;-52
2022/07/13 11:20:59;;;;;;;2.50;1.27;;;;;;;15.14;100.00;98104.44;5090075;28;20143;-52
2022/07/13 11:26:23;;;;;;;0.95;0.93;;;;;;;15.02;100.00;98120.38;5090218;28;20055;-54
2022/07/13 11:29:12;;;;;;;0.98;0.98;;;;;;;14.69;100.00;98124.06;5089878;28;20052;-55
2022/07/13 11:31:40;;;;;;;1.92;1.45;;;;;;;14.81;100.00;98117.97;5090244;28;20048;-53
2022/07/13 11:34:06;;;;;;;1.90;1.20;;;;;;;14.87;100.00;98107.25;5089826;28;20077;-55
2022/07/13 11:36:33;;;;;;;3.25;0.93;;;;;;;15.17;100.00;98115.41;5089843;28;20499;-52
2022/07/13 11:38:59;;;;;;;1.52;1.30;;;;;;;15.03;100.00;98123.94;5089960;28;20101;-52